sensor_id;sensor_type;location;lat;lon;timestamp;P1;durP1;ratioP1;P2;durP2;ratioP2
9042;SDS011;4556;49.150;8.808;2023-03-01T00:01:27;11.40;;;8.00;;
9042;SDS011;4556;49.150;8.808;2023-03-01T00:03:56;10.57;;;7.53;;
9042;SDS011;4556;49.150;8.808;2023-03-01T00:06:26;12.20;;;7.70;;
9042;SDS011;4556;49.150;8.808;2023-03-01T00:08:53;11.50;;;8.03;;
9042;SDS011;4556;49.150;8.808;2023-03-01T00:11:21;11.73;;;8.77;;
9042;SDS011;4556;49.150;8.808;2023-03-01T00:13:51;14.37;;;9.37;;
9042;SDS011;4556;49.150;8.808;2023-03-01T00:16:21;13.10;;;8.50;;
9042;SDS011;4556;49.150;8.808;2023-03-01T00:18:49;10.53;;;8.30;;
9042;SDS011;4556;49.150;8.808;2023-03-01T00:21:16;12.03;;;8.50;;
9042;SDS011;4556;49.150;8.808;2023-03-01T00:23:45;11.37;;;8.00;;
9042;SDS011;4556;49.150;8.808;2023-03-01T00:26:14;14.37;;;9.33;;
9042;SDS011;4556;49.150;8.808;2023-03-01T00:28:42;12.00;;;8.43;;
9042;SDS011;4556;49.150;8.808;2023-03-01T00:31:11;13.77;;;9.10;;
9042;SDS011;4556;49.150;8.808;2023-03-01T00:33:39;12.57;;;8.60;;
9042;SDS011;4556;49.150;8.808;2023-03-01T00:36:08;11.10;;;8.47;;
9042;SDS011;4556;49.150;8.808;2023-03-01T00:38:36;12.50;;;8.57;;
9042;SDS011;4556;49.150;8.808;2023-03-01T00:41:06;12.17;;;8.47;;
9042;SDS011;4556;49.150;8.808;2023-03-01T00:43:34;12.83;;;8.10;;
9042;SDS011;4556;49.150;8.808;2023-03-01T00:46:04;12.77;;;8.37;;
9042;SDS011;4556;49.150;8.808;2023-03-01T00:48:33;11.03;;;8.23;;
9042;SDS011;4556;49.150;8.808;2023-03-01T00:51:04;14.70;;;9.70;;
9042;SDS011;4556;49.150;8.808;2023-03-01T00:53:32;13.10;;;8.73;;
9042;SDS011;4556;49.150;8.808;2023-03-01T00:55:59;11.50;;;8.73;;
9042;SDS011;4556;49.150;8.808;2023-03-01T00:58:29;14.67;;;9.50;;
9042;SDS011;4556;49.150;8.808;2023-03-01T01:00:56;13.57;;;9.13;;
9042;SDS011;4556;49.150;8.808;2023-03-01T01:03:23;12.63;;;9.30;;
9042;SDS011;4556;49.150;8.808;2023-03-01T01:05:51;14.30;;;9.67;;
9042;SDS011;4556;49.150;8.808;2023-03-01T01:08:18;12.47;;;8.43;;
9042;SDS011;4556;49.150;8.808;2023-03-01T01:10:46;14.23;;;10.37;;
9042;SDS011;4556;49.150;8.808;2023-03-01T01:13:26;13.50;;;9.87;;
9042;SDS011;4556;49.150;8.808;2023-03-01T01:15:59;13.50;;;9.83;;
9042;SDS011;4556;49.150;8.808;2023-03-01T01:18:27;15.80;;;10.40;;
9042;SDS011;4556;49.150;8.808;2023-03-01T01:20:54;14.90;;;10.27;;
9042;SDS011;4556;49.150;8.808;2023-03-01T01:23:21;15.90;;;10.47;;
9042;SDS011;4556;49.150;8.808;2023-03-01T01:25:49;16.13;;;9.60;;
9042;SDS011;4556;49.150;8.808;2023-03-01T01:28:16;13.63;;;10.10;;
9042;SDS011;4556;49.150;8.808;2023-03-01T01:30:45;15.07;;;10.30;;
9042;SDS011;4556;49.150;8.808;2023-03-01T01:33:12;15.63;;;10.80;;
9042;SDS011;4556;49.150;8.808;2023-03-01T01:35:39;13.10;;;9.33;;
9042;SDS011;4556;49.150;8.808;2023-03-01T01:38:06;12.80;;;9.53;;
9042;SDS011;4556;49.150;8.808;2023-03-01T01:40:33;13.73;;;10.33;;
9042;SDS011;4556;49.150;8.808;2023-03-01T01:43:00;14.17;;;10.23;;
9042;SDS011;4556;49.150;8.808;2023-03-01T01:45:29;14.07;;;10.40;;
9042;SDS011;4556;49.150;8.808;2023-03-01T01:48:02;14.33;;;10.33;;
9042;SDS011;4556;49.150;8.808;2023-03-01T01:50:33;13.83;;;10.23;;
9042;SDS011;4556;49.150;8.808;2023-03-01T01:53:05;14.63;;;10.47;;
9042;SDS011;4556;49.150;8.808;2023-03-01T01:55:36;13.53;;;9.97;;
9042;SDS011;4556;49.150;8.808;2023-03-01T01:58:06;13.53;;;10.70;;
9042;SDS011;4556;49.150;8.808;2023-03-01T02:00:35;14.57;;;11.13;;
9042;SDS011;4556;49.150;8.808;2023-03-01T02:03:06;14.80;;;10.80;;
9042;SDS011;4556;49.150;8.808;2023-03-01T02:05:38;14.37;;;10.83;;
9042;SDS011;4556;49.150;8.808;2023-03-01T02:08:10;14.60;;;10.63;;
9042;SDS011;4556;49.150;8.808;2023-03-01T02:10:38;14.17;;;10.20;;
9042;SDS011;4556;49.150;8.808;2023-03-01T02:13:07;16.43;;;10.90;;
9042;SDS011;4556;49.150;8.808;2023-03-01T02:15:35;15.33;;;10.67;;
9042;SDS011;4556;49.150;8.808;2023-03-01T02:18:03;13.27;;;9.93;;
9042;SDS011;4556;49.150;8.808;2023-03-01T02:20:34;14.67;;;11.07;;
9042;SDS011;4556;49.150;8.808;2023-03-01T02:23:06;15.17;;;10.27;;
9042;SDS011;4556;49.150;8.808;2023-03-01T02:25:37;14.80;;;10.47;;
9042;SDS011;4556;49.150;8.808;2023-03-01T02:28:20;17.13;;;10.60;;
9042;SDS011;4556;49.150;8.808;2023-03-01T02:30:49;18.87;;;10.97;;
9042;SDS011;4556;49.150;8.808;2023-03-01T02:33:31;16.10;;;11.30;;
9042;SDS011;4556;49.150;8.808;2023-03-01T02:36:01;16.00;;;10.87;;
9042;SDS011;4556;49.150;8.808;2023-03-01T02:38:31;15.07;;;10.30;;
9042;SDS011;4556;49.150;8.808;2023-03-01T02:40:59;15.03;;;10.43;;
9042;SDS011;4556;49.150;8.808;2023-03-01T02:43:29;13.77;;;10.03;;
9042;SDS011;4556;49.150;8.808;2023-03-01T02:46:02;15.83;;;10.87;;
9042;SDS011;4556;49.150;8.808;2023-03-01T02:48:38;15.47;;;10.13;;
9042;SDS011;4556;49.150;8.808;2023-03-01T02:51:07;14.40;;;10.30;;
9042;SDS011;4556;49.150;8.808;2023-03-01T02:53:48;15.07;;;10.37;;
9042;SDS011;4556;49.150;8.808;2023-03-01T02:56:25;16.90;;;11.27;;
9042;SDS011;4556;49.150;8.808;2023-03-01T02:58:54;17.30;;;11.50;;
9042;SDS011;4556;49.150;8.808;2023-03-01T03:01:25;18.30;;;11.50;;
9042;SDS011;4556;49.150;8.808;2023-03-01T03:04:03;18.50;;;12.03;;
9042;SDS011;4556;49.150;8.808;2023-03-01T03:06:30;21.57;;;11.83;;
9042;SDS011;4556;49.150;8.808;2023-03-01T03:08:57;13.93;;;10.27;;
9042;SDS011;4556;49.150;8.808;2023-03-01T03:11:24;16.13;;;11.33;;
9042;SDS011;4556;49.150;8.808;2023-03-01T03:13:53;16.07;;;11.20;;
9042;SDS011;4556;49.150;8.808;2023-03-01T03:16:20;15.27;;;11.40;;
9042;SDS011;4556;49.150;8.808;2023-03-01T03:18:48;17.37;;;12.00;;
9042;SDS011;4556;49.150;8.808;2023-03-01T03:21:15;16.20;;;10.80;;
9042;SDS011;4556;49.150;8.808;2023-03-01T03:23:43;16.57;;;11.70;;
9042;SDS011;4556;49.150;8.808;2023-03-01T03:26:10;15.60;;;10.80;;
9042;SDS011;4556;49.150;8.808;2023-03-01T03:28:40;18.37;;;10.97;;
9042;SDS011;4556;49.150;8.808;2023-03-01T03:31:10;16.23;;;10.30;;
9042;SDS011;4556;49.150;8.808;2023-03-01T03:33:37;16.53;;;11.10;;
9042;SDS011;4556;49.150;8.808;2023-03-01T03:36:04;16.80;;;10.93;;
9042;SDS011;4556;49.150;8.808;2023-03-01T03:38:32;14.20;;;9.87;;
9042;SDS011;4556;49.150;8.808;2023-03-01T03:41:00;19.33;;;11.37;;
9042;SDS011;4556;49.150;8.808;2023-03-01T03:43:29;19.97;;;12.20;;
9042;SDS011;4556;49.150;8.808;2023-03-01T03:45:58;16.47;;;11.60;;
9042;SDS011;4556;49.150;8.808;2023-03-01T03:48:27;16.60;;;11.47;;
9042;SDS011;4556;49.150;8.808;2023-03-01T03:50:54;17.23;;;12.27;;
9042;SDS011;4556;49.150;8.808;2023-03-01T03:53:23;16.57;;;11.67;;
9042;SDS011;4556;49.150;8.808;2023-03-01T03:55:51;19.40;;;12.57;;
9042;SDS011;4556;49.150;8.808;2023-03-01T03:58:19;16.87;;;11.80;;
9042;SDS011;4556;49.150;8.808;2023-03-01T04:00:48;17.40;;;12.23;;
9042;SDS011;4556;49.150;8.808;2023-03-01T04:03:18;18.93;;;11.97;;
9042;SDS011;4556;49.150;8.808;2023-03-01T04:05:47;18.77;;;12.33;;
9042;SDS011;4556;49.150;8.808;2023-03-01T04:08:21;20.60;;;12.60;;
9042;SDS011;4556;49.150;8.808;2023-03-01T04:10:50;18.97;;;12.43;;
9042;SDS011;4556;49.150;8.808;2023-03-01T04:13:19;19.60;;;12.53;;
9042;SDS011;4556;49.150;8.808;2023-03-01T04:15:48;18.13;;;12.23;;
9042;SDS011;4556;49.150;8.808;2023-03-01T04:18:16;15.23;;;11.10;;
9042;SDS011;4556;49.150;8.808;2023-03-01T04:20:44;17.00;;;11.47;;
9042;SDS011;4556;49.150;8.808;2023-03-01T04:23:14;18.10;;;11.63;;
9042;SDS011;4556;49.150;8.808;2023-03-01T04:25:45;18.50;;;12.00;;
9042;SDS011;4556;49.150;8.808;2023-03-01T04:28:18;18.30;;;12.17;;
9042;SDS011;4556;49.150;8.808;2023-03-01T04:30:46;18.33;;;12.20;;
9042;SDS011;4556;49.150;8.808;2023-03-01T04:33:13;16.43;;;12.17;;
9042;SDS011;4556;49.150;8.808;2023-03-01T04:35:40;20.40;;;12.80;;
9042;SDS011;4556;49.150;8.808;2023-03-01T04:38:07;17.63;;;12.23;;
9042;SDS011;4556;49.150;8.808;2023-03-01T04:40:36;19.27;;;12.10;;
9042;SDS011;4556;49.150;8.808;2023-03-01T04:43:03;17.63;;;11.87;;
9042;SDS011;4556;49.150;8.808;2023-03-01T04:45:31;19.73;;;12.60;;
9042;SDS011;4556;49.150;8.808;2023-03-01T04:47:59;17.60;;;12.57;;
9042;SDS011;4556;49.150;8.808;2023-03-01T04:50:27;16.33;;;11.70;;
9042;SDS011;4556;49.150;8.808;2023-03-01T04:52:54;18.33;;;12.80;;
9042;SDS011;4556;49.150;8.808;2023-03-01T04:55:23;22.33;;;12.57;;
9042;SDS011;4556;49.150;8.808;2023-03-01T04:57:52;19.87;;;12.40;;
9042;SDS011;4556;49.150;8.808;2023-03-01T05:00:20;20.23;;;13.00;;
9042;SDS011;4556;49.150;8.808;2023-03-01T05:02:49;18.33;;;11.93;;
9042;SDS011;4556;49.150;8.808;2023-03-01T05:05:19;16.73;;;12.47;;
9042;SDS011;4556;49.150;8.808;2023-03-01T05:07:50;20.63;;;12.63;;
9042;SDS011;4556;49.150;8.808;2023-03-01T05:10:18;18.70;;;13.20;;
9042;SDS011;4556;49.150;8.808;2023-03-01T05:12:45;19.33;;;13.50;;
9042;SDS011;4556;49.150;8.808;2023-03-01T05:15:14;19.43;;;13.20;;
9042;SDS011;4556;49.150;8.808;2023-03-01T05:17:41;18.63;;;12.40;;
9042;SDS011;4556;49.150;8.808;2023-03-01T05:20:09;22.30;;;14.03;;
9042;SDS011;4556;49.150;8.808;2023-03-01T05:22:37;19.87;;;12.50;;
9042;SDS011;4556;49.150;8.808;2023-03-01T05:25:04;20.00;;;12.83;;
9042;SDS011;4556;49.150;8.808;2023-03-01T05:27:33;18.60;;;12.33;;
9042;SDS011;4556;49.150;8.808;2023-03-01T05:30:00;19.50;;;12.77;;
9042;SDS011;4556;49.150;8.808;2023-03-01T05:32:40;19.03;;;12.13;;
9042;SDS011;4556;49.150;8.808;2023-03-01T05:35:09;20.00;;;13.17;;
9042;SDS011;4556;49.150;8.808;2023-03-01T05:37:40;19.47;;;13.10;;
9042;SDS011;4556;49.150;8.808;2023-03-01T05:40:08;21.50;;;12.97;;
9042;SDS011;4556;49.150;8.808;2023-03-01T05:42:41;19.37;;;13.10;;
9042;SDS011;4556;49.150;8.808;2023-03-01T05:45:09;20.33;;;13.13;;
9042;SDS011;4556;49.150;8.808;2023-03-01T05:47:37;21.10;;;13.97;;
9042;SDS011;4556;49.150;8.808;2023-03-01T05:50:10;19.17;;;12.43;;
9042;SDS011;4556;49.150;8.808;2023-03-01T05:52:38;20.83;;;12.50;;
9042;SDS011;4556;49.150;8.808;2023-03-01T05:55:05;18.07;;;11.67;;
9042;SDS011;4556;49.150;8.808;2023-03-01T05:57:33;21.00;;;13.83;;
9042;SDS011;4556;49.150;8.808;2023-03-01T06:00:00;22.60;;;13.33;;
9042;SDS011;4556;49.150;8.808;2023-03-01T06:02:27;18.43;;;12.70;;
9042;SDS011;4556;49.150;8.808;2023-03-01T06:04:57;22.53;;;13.47;;
9042;SDS011;4556;49.150;8.808;2023-03-01T06:07:24;19.93;;;13.50;;
9042;SDS011;4556;49.150;8.808;2023-03-01T06:09:51;18.93;;;13.10;;
9042;SDS011;4556;49.150;8.808;2023-03-01T06:12:18;21.47;;;13.67;;
9042;SDS011;4556;49.150;8.808;2023-03-01T06:14:45;21.63;;;12.50;;
9042;SDS011;4556;49.150;8.808;2023-03-01T06:17:13;23.07;;;14.40;;
9042;SDS011;4556;49.150;8.808;2023-03-01T06:19:40;21.73;;;14.07;;
9042;SDS011;4556;49.150;8.808;2023-03-01T06:22:09;21.53;;;13.33;;
9042;SDS011;4556;49.150;8.808;2023-03-01T06:24:36;23.57;;;14.03;;
9042;SDS011;4556;49.150;8.808;2023-03-01T06:27:03;21.07;;;13.63;;
9042;SDS011;4556;49.150;8.808;2023-03-01T06:29:30;20.83;;;13.63;;
9042;SDS011;4556;49.150;8.808;2023-03-01T06:31:57;21.33;;;14.77;;
9042;SDS011;4556;49.150;8.808;2023-03-01T06:34:24;21.07;;;13.50;;
9042;SDS011;4556;49.150;8.808;2023-03-01T06:36:52;20.07;;;13.87;;
9042;SDS011;4556;49.150;8.808;2023-03-01T06:39:22;19.63;;;13.70;;
9042;SDS011;4556;49.150;8.808;2023-03-01T06:41:49;22.63;;;14.30;;
9042;SDS011;4556;49.150;8.808;2023-03-01T06:44:16;19.53;;;13.43;;
9042;SDS011;4556;49.150;8.808;2023-03-01T06:46:43;19.90;;;13.10;;
9042;SDS011;4556;49.150;8.808;2023-03-01T06:49:10;19.60;;;13.53;;
9042;SDS011;4556;49.150;8.808;2023-03-01T06:51:37;22.77;;;13.67;;
9042;SDS011;4556;49.150;8.808;2023-03-01T06:54:05;20.23;;;13.27;;
9042;SDS011;4556;49.150;8.808;2023-03-01T06:56:33;21.40;;;13.33;;
9042;SDS011;4556;49.150;8.808;2023-03-01T06:59:00;18.43;;;12.87;;
9042;SDS011;4556;49.150;8.808;2023-03-01T07:01:28;19.23;;;13.20;;
9042;SDS011;4556;49.150;8.808;2023-03-01T07:03:56;23.07;;;14.20;;
9042;SDS011;4556;49.150;8.808;2023-03-01T07:06:23;20.83;;;14.30;;
9042;SDS011;4556;49.150;8.808;2023-03-01T07:08:51;18.00;;;12.83;;
9042;SDS011;4556;49.150;8.808;2023-03-01T07:11:18;19.30;;;13.20;;
9042;SDS011;4556;49.150;8.808;2023-03-01T07:13:47;18.63;;;12.90;;
9042;SDS011;4556;49.150;8.808;2023-03-01T07:16:14;18.40;;;13.33;;
9042;SDS011;4556;49.150;8.808;2023-03-01T07:18:41;19.83;;;13.03;;
9042;SDS011;4556;49.150;8.808;2023-03-01T07:21:09;18.93;;;13.60;;
9042;SDS011;4556;49.150;8.808;2023-03-01T07:23:39;21.07;;;13.30;;
9042;SDS011;4556;49.150;8.808;2023-03-01T07:26:06;19.37;;;13.70;;
9042;SDS011;4556;49.150;8.808;2023-03-01T07:28:33;20.90;;;13.73;;
9042;SDS011;4556;49.150;8.808;2023-03-01T07:31:05;20.77;;;13.70;;
9042;SDS011;4556;49.150;8.808;2023-03-01T07:33:33;18.73;;;12.73;;
9042;SDS011;4556;49.150;8.808;2023-03-01T07:36:00;18.73;;;13.30;;
9042;SDS011;4556;49.150;8.808;2023-03-01T07:38:29;21.07;;;13.13;;
9042;SDS011;4556;49.150;8.808;2023-03-01T07:40:58;18.47;;;12.67;;
9042;SDS011;4556;49.150;8.808;2023-03-01T07:43:25;23.93;;;13.60;;
9042;SDS011;4556;49.150;8.808;2023-03-01T07:45:53;18.33;;;13.43;;
9042;SDS011;4556;49.150;8.808;2023-03-01T07:48:22;21.83;;;13.07;;
9042;SDS011;4556;49.150;8.808;2023-03-01T07:50:49;18.63;;;12.97;;
9042;SDS011;4556;49.150;8.808;2023-03-01T07:53:16;17.80;;;13.10;;
9042;SDS011;4556;49.150;8.808;2023-03-01T07:55:43;20.23;;;13.03;;
9042;SDS011;4556;49.150;8.808;2023-03-01T07:58:10;21.50;;;11.43;;
9042;SDS011;4556;49.150;8.808;2023-03-01T08:00:37;18.23;;;12.70;;
9042;SDS011;4556;49.150;8.808;2023-03-01T08:03:04;22.40;;;12.00;;
9042;SDS011;4556;49.150;8.808;2023-03-01T08:05:33;19.97;;;13.90;;
9042;SDS011;4556;49.150;8.808;2023-03-01T08:08:00;19.73;;;12.70;;
9042;SDS011;4556;49.150;8.808;2023-03-01T08:10:26;18.73;;;12.37;;
9042;SDS011;4556;49.150;8.808;2023-03-01T08:12:53;20.10;;;13.00;;
9042;SDS011;4556;49.150;8.808;2023-03-01T08:15:21;18.40;;;12.87;;
9042;SDS011;4556;49.150;8.808;2023-03-01T08:17:48;17.60;;;12.20;;
9042;SDS011;4556;49.150;8.808;2023-03-01T08:20:16;21.47;;;13.53;;
9042;SDS011;4556;49.150;8.808;2023-03-01T08:22:45;15.47;;;10.03;;
9042;SDS011;4556;49.150;8.808;2023-03-01T08:25:12;17.97;;;10.00;;
9042;SDS011;4556;49.150;8.808;2023-03-01T08:27:39;24.67;;;13.70;;
9042;SDS011;4556;49.150;8.808;2023-03-01T08:30:07;21.07;;;13.83;;
9042;SDS011;4556;49.150;8.808;2023-03-01T08:32:36;15.60;;;10.20;;
9042;SDS011;4556;49.150;8.808;2023-03-01T08:35:04;18.43;;;12.97;;
9042;SDS011;4556;49.150;8.808;2023-03-01T08:37:34;17.93;;;11.20;;
9042;SDS011;4556;49.150;8.808;2023-03-01T08:40:04;21.13;;;12.77;;
9042;SDS011;4556;49.150;8.808;2023-03-01T08:42:35;17.80;;;12.73;;
9042;SDS011;4556;49.150;8.808;2023-03-01T08:45:02;19.13;;;12.70;;
9042;SDS011;4556;49.150;8.808;2023-03-01T08:47:30;16.70;;;11.53;;
9042;SDS011;4556;49.150;8.808;2023-03-01T08:49:58;18.10;;;12.27;;
9042;SDS011;4556;49.150;8.808;2023-03-01T08:52:25;21.93;;;13.20;;
9042;SDS011;4556;49.150;8.808;2023-03-01T08:54:53;14.70;;;10.67;;
9042;SDS011;4556;49.150;8.808;2023-03-01T08:57:22;16.20;;;10.80;;
9042;SDS011;4556;49.150;8.808;2023-03-01T08:59:49;18.50;;;12.27;;
9042;SDS011;4556;49.150;8.808;2023-03-01T09:02:16;21.77;;;12.67;;
9042;SDS011;4556;49.150;8.808;2023-03-01T09:04:44;17.47;;;11.90;;
9042;SDS011;4556;49.150;8.808;2023-03-01T09:07:12;19.30;;;13.33;;
9042;SDS011;4556;49.150;8.808;2023-03-01T09:09:39;19.50;;;12.97;;
9042;SDS011;4556;49.150;8.808;2023-03-01T09:12:06;16.67;;;11.43;;
9042;SDS011;4556;49.150;8.808;2023-03-01T09:14:35;19.33;;;12.40;;
9042;SDS011;4556;49.150;8.808;2023-03-01T09:17:03;17.60;;;12.00;;
9042;SDS011;4556;49.150;8.808;2023-03-01T09:19:30;17.47;;;12.83;;
9042;SDS011;4556;49.150;8.808;2023-03-01T09:21:57;17.13;;;12.97;;
9042;SDS011;4556;49.150;8.808;2023-03-01T09:24:24;19.37;;;13.83;;
9042;SDS011;4556;49.150;8.808;2023-03-01T09:26:55;19.33;;;13.07;;
9042;SDS011;4556;49.150;8.808;2023-03-01T09:29:23;19.93;;;14.27;;
9042;SDS011;4556;49.150;8.808;2023-03-01T09:31:52;16.50;;;12.70;;
9042;SDS011;4556;49.150;8.808;2023-03-01T09:34:20;19.13;;;13.40;;
9042;SDS011;4556;49.150;8.808;2023-03-01T09:36:49;19.60;;;13.63;;
9042;SDS011;4556;49.150;8.808;2023-03-01T09:39:16;20.43;;;13.80;;
9042;SDS011;4556;49.150;8.808;2023-03-01T09:41:46;23.60;;;15.87;;
9042;SDS011;4556;49.150;8.808;2023-03-01T09:44:21;21.57;;;14.30;;
9042;SDS011;4556;49.150;8.808;2023-03-01T09:46:56;19.07;;;13.40;;
9042;SDS011;4556;49.150;8.808;2023-03-01T09:49:24;18.97;;;13.43;;
9042;SDS011;4556;49.150;8.808;2023-03-01T09:51:56;18.67;;;12.80;;
9042;SDS011;4556;49.150;8.808;2023-03-01T09:54:26;21.67;;;14.07;;
9042;SDS011;4556;49.150;8.808;2023-03-01T09:56:57;20.67;;;13.53;;
9042;SDS011;4556;49.150;8.808;2023-03-01T09:59:33;18.37;;;13.00;;
9042;SDS011;4556;49.150;8.808;2023-03-01T10:02:18;20.83;;;13.77;;
9042;SDS011;4556;49.150;8.808;2023-03-01T10:04:53;19.37;;;13.73;;
9042;SDS011;4556;49.150;8.808;2023-03-01T10:07:28;14.63;;;10.33;;
9042;SDS011;4556;49.150;8.808;2023-03-01T10:10:04;20.57;;;14.43;;
9042;SDS011;4556;49.150;8.808;2023-03-01T10:12:33;19.13;;;12.87;;
9042;SDS011;4556;49.150;8.808;2023-03-01T10:15:05;17.23;;;12.33;;
9042;SDS011;4556;49.150;8.808;2023-03-01T10:17:39;18.03;;;12.83;;
9042;SDS011;4556;49.150;8.808;2023-03-01T10:20:17;17.63;;;11.23;;
9042;SDS011;4556;49.150;8.808;2023-03-01T10:22:46;23.10;;;13.50;;
9042;SDS011;4556;49.150;8.808;2023-03-01T10:25:15;17.10;;;12.53;;
9042;SDS011;4556;49.150;8.808;2023-03-01T10:27:51;21.37;;;13.00;;
9042;SDS011;4556;49.150;8.808;2023-03-01T10:30:20;17.50;;;12.40;;
9042;SDS011;4556;49.150;8.808;2023-03-01T10:33:12;19.67;;;14.20;;
9042;SDS011;4556;49.150;8.808;2023-03-01T10:35:43;14.63;;;10.70;;
9042;SDS011;4556;49.150;8.808;2023-03-01T10:38:11;20.80;;;14.53;;
9042;SDS011;4556;49.150;8.808;2023-03-01T10:40:49;18.13;;;13.37;;
9042;SDS011;4556;49.150;8.808;2023-03-01T10:43:18;15.73;;;10.63;;
9042;SDS011;4556;49.150;8.808;2023-03-01T10:45:45;17.63;;;13.40;;
9042;SDS011;4556;49.150;8.808;2023-03-01T10:48:16;19.17;;;13.83;;
9042;SDS011;4556;49.150;8.808;2023-03-01T10:50:47;18.13;;;13.20;;
9042;SDS011;4556;49.150;8.808;2023-03-01T10:53:21;17.13;;;12.80;;
9042;SDS011;4556;49.150;8.808;2023-03-01T10:55:58;19.50;;;13.53;;
9042;SDS011;4556;49.150;8.808;2023-03-01T10:58:27;18.23;;;13.53;;
9042;SDS011;4556;49.150;8.808;2023-03-01T11:00:55;20.30;;;12.73;;
9042;SDS011;4556;49.150;8.808;2023-03-01T11:03:26;17.27;;;12.77;;
9042;SDS011;4556;49.150;8.808;2023-03-01T11:06:00;20.50;;;13.07;;
9042;SDS011;4556;49.150;8.808;2023-03-01T11:08:39;22.07;;;13.90;;
9042;SDS011;4556;49.150;8.808;2023-03-01T11:11:18;16.70;;;13.03;;
9042;SDS011;4556;49.150;8.808;2023-03-01T11:13:56;20.57;;;13.10;;
9042;SDS011;4556;49.150;8.808;2023-03-01T11:16:32;17.93;;;10.23;;
9042;SDS011;4556;49.150;8.808;2023-03-01T11:19:14;20.00;;;13.07;;
9042;SDS011;4556;49.150;8.808;2023-03-01T11:21:44;17.93;;;12.33;;
9042;SDS011;4556;49.150;8.808;2023-03-01T11:24:30;20.57;;;14.00;;
9042;SDS011;4556;49.150;8.808;2023-03-01T11:27:04;19.43;;;13.87;;
9042;SDS011;4556;49.150;8.808;2023-03-01T11:29:42;18.93;;;12.57;;
9042;SDS011;4556;49.150;8.808;2023-03-01T11:32:12;19.80;;;13.73;;
9042;SDS011;4556;49.150;8.808;2023-03-01T11:34:49;19.87;;;13.97;;
9042;SDS011;4556;49.150;8.808;2023-03-01T11:37:22;16.10;;;11.53;;
9042;SDS011;4556;49.150;8.808;2023-03-01T11:40:01;18.13;;;14.33;;
9042;SDS011;4556;49.150;8.808;2023-03-01T11:42:43;17.70;;;13.57;;
9042;SDS011;4556;49.150;8.808;2023-03-01T11:45:18;16.70;;;12.30;;
9042;SDS011;4556;49.150;8.808;2023-03-01T11:47:52;18.13;;;13.37;;
9042;SDS011;4556;49.150;8.808;2023-03-01T11:50:33;14.83;;;9.43;;
9042;SDS011;4556;49.150;8.808;2023-03-01T11:53:09;19.40;;;12.77;;
9042;SDS011;4556;49.150;8.808;2023-03-01T11:55:52;17.67;;;12.73;;
9042;SDS011;4556;49.150;8.808;2023-03-01T11:58:41;19.60;;;12.57;;
9042;SDS011;4556;49.150;8.808;2023-03-01T12:01:28;17.43;;;12.53;;
9042;SDS011;4556;49.150;8.808;2023-03-01T12:04:10;19.47;;;12.13;;
9042;SDS011;4556;49.150;8.808;2023-03-01T12:07:02;16.07;;;11.17;;
9042;SDS011;4556;49.150;8.808;2023-03-01T12:09:43;16.17;;;13.30;;
9042;SDS011;4556;49.150;8.808;2023-03-01T12:12:26;17.07;;;13.13;;
9042;SDS011;4556;49.150;8.808;2023-03-01T12:17:58;18.37;;;12.23;;
9042;SDS011;4556;49.150;8.808;2023-03-01T12:20:40;17.90;;;12.50;;
9042;SDS011;4556;49.150;8.808;2023-03-01T12:23:23;15.50;;;10.67;;
9042;SDS011;4556;49.150;8.808;2023-03-01T12:26:03;17.60;;;12.47;;
9042;SDS011;4556;49.150;8.808;2023-03-01T12:28:43;18.30;;;12.90;;
9042;SDS011;4556;49.150;8.808;2023-03-01T12:34:23;11.03;;;7.07;;
9042;SDS011;4556;49.150;8.808;2023-03-01T12:37:12;17.30;;;10.83;;
9042;SDS011;4556;49.150;8.808;2023-03-01T12:39:57;15.73;;;10.50;;
9042;SDS011;4556;49.150;8.808;2023-03-01T12:42:48;15.30;;;12.57;;
9042;SDS011;4556;49.150;8.808;2023-03-01T12:48:24;15.93;;;12.13;;
9042;SDS011;4556;49.150;8.808;2023-03-01T12:51:03;16.63;;;12.50;;
9042;SDS011;4556;49.150;8.808;2023-03-01T12:53:36;17.03;;;12.80;;
9042;SDS011;4556;49.150;8.808;2023-03-01T12:56:08;15.73;;;12.03;;
9042;SDS011;4556;49.150;8.808;2023-03-01T12:58:39;15.60;;;11.83;;
9042;SDS011;4556;49.150;8.808;2023-03-01T13:01:20;13.93;;;10.30;;
9042;SDS011;4556;49.150;8.808;2023-03-01T13:03:56;16.83;;;12.60;;
9042;SDS011;4556;49.150;8.808;2023-03-01T13:06:32;15.33;;;11.67;;
9042;SDS011;4556;49.150;8.808;2023-03-01T13:09:07;19.63;;;12.10;;
9042;SDS011;4556;49.150;8.808;2023-03-01T13:11:42;16.20;;;11.97;;
9042;SDS011;4556;49.150;8.808;2023-03-01T13:17:33;17.40;;;12.57;;
9042;SDS011;4556;49.150;8.808;2023-03-01T13:20:12;16.03;;;11.53;;
9042;SDS011;4556;49.150;8.808;2023-03-01T13:22:41;19.53;;;12.10;;
9042;SDS011;4556;49.150;8.808;2023-03-01T13:25:12;13.57;;;9.17;;
9042;SDS011;4556;49.150;8.808;2023-03-01T13:27:44;16.43;;;12.20;;
9042;SDS011;4556;49.150;8.808;2023-03-01T13:39:26;17.37;;;12.93;;
9042;SDS011;4556;49.150;8.808;2023-03-01T13:41:56;13.60;;;9.77;;
9042;SDS011;4556;49.150;8.808;2023-03-01T13:44:29;17.90;;;12.53;;
9042;SDS011;4556;49.150;8.808;2023-03-01T13:46:59;13.17;;;9.63;;
9042;SDS011;4556;49.150;8.808;2023-03-01T13:49:42;16.47;;;12.30;;
9042;SDS011;4556;49.150;8.808;2023-03-01T13:52:23;15.70;;;11.30;;
9042;SDS011;4556;49.150;8.808;2023-03-01T13:54:58;15.07;;;11.23;;
9042;SDS011;4556;49.150;8.808;2023-03-01T13:57:28;15.60;;;10.67;;
9042;SDS011;4556;49.150;8.808;2023-03-01T14:00:01;17.97;;;11.83;;
9042;SDS011;4556;49.150;8.808;2023-03-01T14:02:29;19.23;;;12.77;;
9042;SDS011;4556;49.150;8.808;2023-03-01T14:04:57;8.90;;;6.77;;
9042;SDS011;4556;49.150;8.808;2023-03-01T14:07:25;16.77;;;11.37;;
9042;SDS011;4556;49.150;8.808;2023-03-01T14:09:54;16.50;;;11.50;;
9042;SDS011;4556;49.150;8.808;2023-03-01T14:12:32;18.47;;;11.80;;
9042;SDS011;4556;49.150;8.808;2023-03-01T14:15:15;16.80;;;12.00;;
9042;SDS011;4556;49.150;8.808;2023-03-01T14:17:49;17.20;;;12.00;;
9042;SDS011;4556;49.150;8.808;2023-03-01T14:20:30;14.93;;;11.30;;
9042;SDS011;4556;49.150;8.808;2023-03-01T14:23:01;16.00;;;12.00;;
9042;SDS011;4556;49.150;8.808;2023-03-01T14:25:35;15.37;;;11.50;;
9042;SDS011;4556;49.150;8.808;2023-03-01T14:28:04;16.23;;;11.90;;
9042;SDS011;4556;49.150;8.808;2023-03-01T14:30:44;17.37;;;11.50;;
9042;SDS011;4556;49.150;8.808;2023-03-01T14:33:20;15.10;;;12.17;;
9042;SDS011;4556;49.150;8.808;2023-03-01T14:35:57;14.43;;;9.47;;
9042;SDS011;4556;49.150;8.808;2023-03-01T14:38:29;14.90;;;12.20;;
9042;SDS011;4556;49.150;8.808;2023-03-01T14:41:00;17.23;;;12.00;;
9042;SDS011;4556;49.150;8.808;2023-03-01T14:43:30;15.43;;;11.47;;
9042;SDS011;4556;49.150;8.808;2023-03-01T14:45:59;16.47;;;12.43;;
9042;SDS011;4556;49.150;8.808;2023-03-01T14:48:26;13.80;;;9.07;;
9042;SDS011;4556;49.150;8.808;2023-03-01T14:50:54;12.00;;;7.57;;
9042;SDS011;4556;49.150;8.808;2023-03-01T14:53:23;14.67;;;10.03;;
9042;SDS011;4556;49.150;8.808;2023-03-01T14:55:53;11.23;;;8.30;;
9042;SDS011;4556;49.150;8.808;2023-03-01T14:58:22;14.27;;;11.47;;
9042;SDS011;4556;49.150;8.808;2023-03-01T15:00:52;17.40;;;11.77;;
9042;SDS011;4556;49.150;8.808;2023-03-01T15:03:25;15.33;;;11.03;;
9042;SDS011;4556;49.150;8.808;2023-03-01T15:05:56;15.23;;;11.63;;
9042;SDS011;4556;49.150;8.808;2023-03-01T15:08:24;17.30;;;11.07;;
9042;SDS011;4556;49.150;8.808;2023-03-01T15:11:02;13.43;;;11.00;;
9042;SDS011;4556;49.150;8.808;2023-03-01T15:13:31;15.37;;;11.33;;
9042;SDS011;4556;49.150;8.808;2023-03-01T15:16:03;17.60;;;12.07;;
9042;SDS011;4556;49.150;8.808;2023-03-01T15:18:42;15.53;;;11.90;;
9042;SDS011;4556;49.150;8.808;2023-03-01T15:21:15;14.80;;;10.97;;
9042;SDS011;4556;49.150;8.808;2023-03-01T15:23:48;16.27;;;11.00;;
9042;SDS011;4556;49.150;8.808;2023-03-01T15:26:21;14.47;;;10.40;;
9042;SDS011;4556;49.150;8.808;2023-03-01T15:28:52;15.67;;;11.50;;
9042;SDS011;4556;49.150;8.808;2023-03-01T15:31:24;16.27;;;10.77;;
9042;SDS011;4556;49.150;8.808;2023-03-01T15:33:58;16.37;;;11.47;;